Saint Mawgan, United Kingdom

8:07 PM GMT on February 19, 2017 (GMT +0000)
Newquay | | Change Station

Elev 119 ft 50.42 °N, 5.05 °W | Updated 7 minutes ago

Fog
Fog
51.1 °F
Feels Like 51.1 °F
N
6.0
Wind Variable Wind from WSW
Gusts 10.0 mph

Today
High -- | Low -- °F
--% Chance of Precip.
Yesterday
High -- | Low -- °F
Precip. -- in
Pressure 30.24 in
Visibility 6.2 miles
Clouds Few 400 ft
Mostly Cloudy 4900 ft
Dew Point 50 °F
Humidity 95%
Rainfall 0.04 in
Snow Depth Not available.
7:23 AM 5:44 PM
Last Quarter, 40% visible
METAR EGDR 191850Z AUTO 29009KT 9999 // FEW004/// BKN049/// 11/10 Q1024
Pressure 30.24 in
Visibility 6.2 miles
Clouds Few 400 ft
Mostly Cloudy 4900 ft
Dew Point 50 °F
Humidity 95%
Rainfall 0.04 in
Snow Depth Not available.
7:23 AM 5:44 PM
Last Quarter, 40% visible
METAR EGDR 191850Z AUTO 29009KT 9999 // FEW004/// BKN049/// 11/10 Q1024

Get Your Daily Forecast Email!

Thanks for signing up!

Be on the lookout for a verification email in your inbox.

You'll start receiving the daily forecast at 8 AM.

×

10-Day Weather Forecast

×

Almanac

Astronomy

Feb. 19, 2017 Rise Set
Actual Time
Civil Twilight
Nautical Twilight
Astronomical Twilight
Moon
Length of Visible Light
Length of Day
Tomorrow will be .
, % of the Moon is Illuminated

Today's Extremes

Country Highs Country Lows

Community

WunderPhotos

Upload Photos

1,962,540 photos uploaded!

WunderBlog® & News

Nearby

Air Quality

  Air Quality AQ Index Pollutant
Not available.

Snow Depth

Station Depth Elevation

Earthquake Activity

City Distance Mag. Time & Date
Minimum magnitude displayed is 2.5.

Coastal Water Temperatures

Place Temperature

Stations

Nearby Weather Stations

Station Location Temp. Windchill Dew Point Humidity Wind Precip. Elev Updated Type